sensor_id;sensor_type;location;lat;lon;timestamp;pressure;altitude;pressure_sealevel;temperature;humidity
11395;BME280;5753;54.402;10.220;2024-02-15T00:00:44;101492.91;;;10.04;100.00
11395;BME280;5753;54.402;10.220;2024-02-15T00:03:12;101496.41;;;10.02;100.00
11395;BME280;5753;54.402;10.220;2024-02-15T00:05:41;101501.47;;;10.05;100.00
11395;BME280;5753;54.402;10.220;2024-02-15T00:08:09;101502.28;;;10.07;100.00
11395;BME280;5753;54.402;10.220;2024-02-15T00:10:36;101497.97;;;10.08;100.00
11395;BME280;5753;54.402;10.220;2024-02-15T00:13:02;101510.09;;;10.04;100.00
11395;BME280;5753;54.402;10.220;2024-02-15T00:15:33;101509.22;;;10.05;100.00
11395;BME280;5753;54.402;10.220;2024-02-15T00:18:00;101506.75;;;10.02;100.00
11395;BME280;5753;54.402;10.220;2024-02-15T00:20:30;101498.06;;;10.04;100.00
11395;BME280;5753;54.402;10.220;2024-02-15T00:22:56;101499.81;;;10.02;100.00
11395;BME280;5753;54.402;10.220;2024-02-15T00:25:24;101502.41;;;10.02;100.00
11395;BME280;5753;54.402;10.220;2024-02-15T00:27:52;101494.63;;;10.04;100.00
11395;BME280;5753;54.402;10.220;2024-02-15T00:30:21;101503.25;;;10.03;100.00
11395;BME280;5753;54.402;10.220;2024-02-15T00:32:48;101499.00;;;10.02;100.00
11395;BME280;5753;54.402;10.220;2024-02-15T00:35:16;101494.63;;;10.04;100.00
11395;BME280;5753;54.402;10.220;2024-02-15T00:37:44;101488.56;;;10.07;100.00
11395;BME280;5753;54.402;10.220;2024-02-15T00:40:12;101484.28;;;10.06;100.00
11395;BME280;5753;54.402;10.220;2024-02-15T00:42:40;101480.00;;;10.04;100.00
11395;BME280;5753;54.402;10.220;2024-02-15T00:45:08;101474.84;;;10.04;100.00
11395;BME280;5753;54.402;10.220;2024-02-15T00:47:38;101473.84;;;10.09;100.00
11395;BME280;5753;54.402;10.220;2024-02-15T00:50:08;101473.00;;;10.08;100.00
11395;BME280;5753;54.402;10.220;2024-02-15T00:52:35;101474.75;;;10.08;100.00
11395;BME280;5753;54.402;10.220;2024-02-15T00:55:05;101480.75;;;10.08;100.00
11395;BME280;5753;54.402;10.220;2024-02-15T00:57:33;101491.03;;;10.10;100.00
11395;BME280;5753;54.402;10.220;2024-02-15T01:00:00;101487.63;;;10.08;100.00
11395;BME280;5753;54.402;10.220;2024-02-15T01:02:30;101489.44;;;10.06;100.00
11395;BME280;5753;54.402;10.220;2024-02-15T01:04:58;101489.47;;;10.04;100.00
11395;BME280;5753;54.402;10.220;2024-02-15T01:07:25;101489.56;;;10.01;100.00
11395;BME280;5753;54.402;10.220;2024-02-15T01:09:55;101497.31;;;10.01;100.00
11395;BME280;5753;54.402;10.220;2024-02-15T01:12:22;101504.25;;;9.97;100.00
11395;BME280;5753;54.402;10.220;2024-02-15T01:14:49;101500.75;;;10.00;100.00
11395;BME280;5753;54.402;10.220;2024-02-15T01:17:16;101498.31;;;9.95;100.00
11395;BME280;5753;54.402;10.220;2024-02-15T01:19:43;101500.84;;;9.97;100.00
11395;BME280;5753;54.402;10.220;2024-02-15T01:22:14;101494.03;;;9.94;100.00
11395;BME280;5753;54.402;10.220;2024-02-15T01:24:42;101494.88;;;9.95;100.00
11395;BME280;5753;54.402;10.220;2024-02-15T01:27:10;101500.03;;;9.95;100.00
11395;BME280;5753;54.402;10.220;2024-02-15T01:29:38;101503.44;;;9.97;100.00
11395;BME280;5753;54.402;10.220;2024-02-15T01:32:06;101494.91;;;9.93;100.00
11395;BME280;5753;54.402;10.220;2024-02-15T01:34:35;101502.59;;;9.96;100.00
11395;BME280;5753;54.402;10.220;2024-02-15T01:37:03;101497.56;;;9.92;100.00
11395;BME280;5753;54.402;10.220;2024-02-15T01:39:31;101496.66;;;9.93;100.00
11395;BME280;5753;54.402;10.220;2024-02-15T01:41:57;101495.78;;;9.92;100.00
11395;BME280;5753;54.402;10.220;2024-02-15T01:44:26;101493.94;;;9.97;100.00
11395;BME280;5753;54.402;10.220;2024-02-15T01:46:54;101500.91;;;9.94;100.00
11395;BME280;5753;54.402;10.220;2024-02-15T01:49:22;101504.31;;;9.96;100.00
11395;BME280;5753;54.402;10.220;2024-02-15T01:51:52;101504.34;;;9.94;100.00
11395;BME280;5753;54.402;10.220;2024-02-15T01:54:19;101495.78;;;9.92;100.00
11395;BME280;5753;54.402;10.220;2024-02-15T01:56:48;101501.09;;;9.88;100.00
11395;BME280;5753;54.402;10.220;2024-02-15T01:59:16;101496.78;;;9.88;100.00
11395;BME280;5753;54.402;10.220;2024-02-15T02:01:46;101501.91;;;9.90;100.00
11395;BME280;5753;54.402;10.220;2024-02-15T02:04:13;101497.63;;;9.89;100.00
11395;BME280;5753;54.402;10.220;2024-02-15T02:06:40;101498.44;;;9.91;100.00
11395;BME280;5753;54.402;10.220;2024-02-15T02:09:12;101488.19;;;9.88;100.00
11395;BME280;5753;54.402;10.220;2024-02-15T02:11:41;101494.13;;;9.91;100.00
11395;BME280;5753;54.402;10.220;2024-02-15T02:14:11;101486.31;;;9.93;100.00
11395;BME280;5753;54.402;10.220;2024-02-15T02:16:38;101495.72;;;9.95;100.00
11395;BME280;5753;54.402;10.220;2024-02-15T02:19:07;101496.72;;;9.91;100.00
11395;BME280;5753;54.402;10.220;2024-02-15T02:21:37;101495.13;;;9.86;100.00
11395;BME280;5753;54.402;10.220;2024-02-15T02:24:14;101492.59;;;9.84;100.00
11395;BME280;5753;54.402;10.220;2024-02-15T02:26:46;101492.59;;;9.84;100.00
11395;BME280;5753;54.402;10.220;2024-02-15T02:29:15;101495.91;;;9.88;100.00
11395;BME280;5753;54.402;10.220;2024-02-15T02:31:43;101495.09;;;9.87;100.00
11395;BME280;5753;54.402;10.220;2024-02-15T02:34:09;101502.72;;;9.92;100.00
11395;BME280;5753;54.402;10.220;2024-02-15T02:36:36;101488.13;;;9.91;100.00
11395;BME280;5753;54.402;10.220;2024-02-15T02:39:03;101492.44;;;9.90;100.00
11395;BME280;5753;54.402;10.220;2024-02-15T02:41:30;101498.44;;;9.91;100.00
11395;BME280;5753;54.402;10.220;2024-02-15T02:43:58;101494.13;;;9.91;100.00
11395;BME280;5753;54.402;10.220;2024-02-15T02:46:26;101500.06;;;9.93;100.00
11395;BME280;5753;54.402;10.220;2024-02-15T02:48:53;101493.22;;;9.92;100.00
11395;BME280;5753;54.402;10.220;2024-02-15T02:51:21;101495.75;;;9.94;100.00
11395;BME280;5753;54.402;10.220;2024-02-15T02:53:47;101494.03;;;9.94;100.00
11395;BME280;5753;54.402;10.220;2024-02-15T02:56:15;101492.41;;;9.92;100.00
11395;BME280;5753;54.402;10.220;2024-02-15T02:58:43;101500.00;;;9.96;100.00
11395;BME280;5753;54.402;10.220;2024-02-15T03:01:10;101494.00;;;9.96;100.00
11395;BME280;5753;54.402;10.220;2024-02-15T03:03:39;101488.00;;;9.95;100.00
11395;BME280;5753;54.402;10.220;2024-02-15T03:06:06;101486.19;;;9.97;100.00
11395;BME280;5753;54.402;10.220;2024-02-15T03:08:34;101487.03;;;9.98;100.00
11395;BME280;5753;54.402;10.220;2024-02-15T03:11:02;101494.84;;;9.96;100.00
11395;BME280;5753;54.402;10.220;2024-02-15T03:13:30;101495.69;;;9.97;100.00
11395;BME280;5753;54.402;10.220;2024-02-15T03:15:57;101486.19;;;9.97;100.00
11395;BME280;5753;54.402;10.220;2024-02-15T03:18:24;101482.84;;;9.95;100.00
11395;BME280;5753;54.402;10.220;2024-02-15T03:20:51;101493.84;;;10.02;100.00
11395;BME280;5753;54.402;10.220;2024-02-15T03:23:17;101486.88;;;10.04;100.00
11395;BME280;5753;54.402;10.220;2024-02-15T03:25:45;101483.47;;;10.03;100.00
11395;BME280;5753;54.402;10.220;2024-02-15T03:28:12;101499.81;;;10.02;100.00
11395;BME280;5753;54.402;10.220;2024-02-15T03:30:41;101492.00;;;10.06;100.00
11395;BME280;5753;54.402;10.220;2024-02-15T03:33:08;101493.78;;;10.03;100.00
11395;BME280;5753;54.402;10.220;2024-02-15T03:35:36;101490.28;;;10.06;100.00
11395;BME280;5753;54.402;10.220;2024-02-15T03:38:04;101493.66;;;10.08;100.00
11395;BME280;5753;54.402;10.220;2024-02-15T03:40:33;101485.25;;;10.01;100.00
11395;BME280;5753;54.402;10.220;2024-02-15T03:43:01;101500.50;;;10.09;100.00
11395;BME280;5753;54.402;10.220;2024-02-15T03:45:34;101497.91;;;10.11;100.00
11395;BME280;5753;54.402;10.220;2024-02-15T03:48:01;101495.44;;;10.06;100.00
11395;BME280;5753;54.402;10.220;2024-02-15T03:50:27;101504.03;;;10.07;100.00
11395;BME280;5753;54.402;10.220;2024-02-15T03:53:00;101508.38;;;10.04;100.00
11395;BME280;5753;54.402;10.220;2024-02-15T03:55:28;101512.72;;;10.02;100.00
11395;BME280;5753;54.402;10.220;2024-02-15T03:57:54;101512.00;;;9.97;100.00
11395;BME280;5753;54.402;10.220;2024-02-15T04:00:24;101504.25;;;9.97;100.00
11395;BME280;5753;54.402;10.220;2024-02-15T04:02:52;101509.34;;;10.00;100.00
11395;BME280;5753;54.402;10.220;2024-02-15T04:05:20;101504.25;;;9.97;100.00
11395;BME280;5753;54.402;10.220;2024-02-15T04:07:47;101509.50;;;9.94;100.00
11395;BME280;5753;54.402;10.220;2024-02-15T04:10:14;101511.22;;;9.95;100.00
11395;BME280;5753;54.402;10.220;2024-02-15T04:12:40;101511.22;;;9.95;100.00
11395;BME280;5753;54.402;10.220;2024-02-15T04:15:09;101501.69;;;9.97;100.00
11395;BME280;5753;54.402;10.220;2024-02-15T04:17:44;101516.28;;;9.98;100.00
11395;BME280;5753;54.402;10.220;2024-02-15T04:20:11;101514.56;;;9.97;100.00
11395;BME280;5753;54.402;10.220;2024-02-15T04:22:39;101512.81;;;9.99;100.00
11395;BME280;5753;54.402;10.220;2024-02-15T04:25:09;101510.25;;;9.98;100.00
11395;BME280;5753;54.402;10.220;2024-02-15T04:27:37;101510.25;;;9.98;100.00
11395;BME280;5753;54.402;10.220;2024-02-15T04:30:06;101510.22;;;9.99;100.00
11395;BME280;5753;54.402;10.220;2024-02-15T04:32:36;101512.06;;;9.96;100.00
11395;BME280;5753;54.402;10.220;2024-02-15T04:35:02;101510.22;;;9.99;100.00
11395;BME280;5753;54.402;10.220;2024-02-15T04:37:29;101513.78;;;9.95;100.00
11395;BME280;5753;54.402;10.220;2024-02-15T04:39:58;101511.97;;;9.99;100.00
11395;BME280;5753;54.402;10.220;2024-02-15T04:42:33;101516.34;;;9.97;100.00
11395;BME280;5753;54.402;10.220;2024-02-15T04:45:02;101511.19;;;9.97;100.00
11395;BME280;5753;54.402;10.220;2024-02-15T04:47:28;101509.50;;;9.94;100.00
11395;BME280;5753;54.402;10.220;2024-02-15T04:49:57;101514.66;;;9.94;100.00
11395;BME280;5753;54.402;10.220;2024-02-15T04:52:26;101507.81;;;9.93;100.00
11395;BME280;5753;54.402;10.220;2024-02-15T04:54:52;101506.94;;;9.94;100.00
11395;BME280;5753;54.402;10.220;2024-02-15T04:57:32;101512.09;;;9.94;100.00
11395;BME280;5753;54.402;10.220;2024-02-15T05:00:00;101512.91;;;9.96;100.00
11395;BME280;5753;54.402;10.220;2024-02-15T05:02:28;101505.16;;;9.96;100.00
11395;BME280;5753;54.402;10.220;2024-02-15T05:04:57;101506.13;;;9.92;100.00
11395;BME280;5753;54.402;10.220;2024-02-15T05:07:25;101512.09;;;9.94;100.00
11395;BME280;5753;54.402;10.220;2024-02-15T05:09:51;101516.38;;;9.95;100.00
11395;BME280;5753;54.402;10.220;2024-02-15T05:12:24;101520.66;;;9.96;100.00
11395;BME280;5753;54.402;10.220;2024-02-15T05:14:52;101518.19;;;9.92;100.00
11395;BME280;5753;54.402;10.220;2024-02-15T05:17:20;101518.81;;;10.00;100.00
11395;BME280;5753;54.402;10.220;2024-02-15T05:19:51;101521.50;;;9.97;100.00
11395;BME280;5753;54.402;10.220;2024-02-15T05:22:19;101516.28;;;9.98;100.00
11395;BME280;5753;54.402;10.220;2024-02-15T05:24:52;101514.50;;;10.00;100.00
11395;BME280;5753;54.402;10.220;2024-02-15T05:27:19;101524.06;;;9.97;100.00
11395;BME280;5753;54.402;10.220;2024-02-15T05:29:45;101524.09;;;9.95;100.00
11395;BME280;5753;54.402;10.220;2024-02-15T05:32:12;101515.50;;;9.96;100.00
11395;BME280;5753;54.402;10.220;2024-02-15T05:34:41;101517.22;;;9.96;100.00
11395;BME280;5753;54.402;10.220;2024-02-15T05:37:07;101518.97;;;9.94;100.00
11395;BME280;5753;54.402;10.220;2024-02-15T05:39:35;101515.63;;;9.92;100.00
11395;BME280;5753;54.402;10.220;2024-02-15T05:42:03;101513.06;;;9.90;100.00
11395;BME280;5753;54.402;10.220;2024-02-15T05:44:32;101517.41;;;9.88;100.00
11395;BME280;5753;54.402;10.220;2024-02-15T05:47:02;101508.91;;;9.85;100.00
11395;BME280;5753;54.402;10.220;2024-02-15T05:49:28;101520.94;;;9.86;100.00
11395;BME280;5753;54.402;10.220;2024-02-15T05:51:56;101514.06;;;9.85;100.00
11395;BME280;5753;54.402;10.220;2024-02-15T05:54:23;101509.66;;;9.88;100.00
11395;BME280;5753;54.402;10.220;2024-02-15T05:56:50;101515.69;;;9.89;100.00
11395;BME280;5753;54.402;10.220;2024-02-15T05:59:18;101512.34;;;9.85;100.00
11395;BME280;5753;54.402;10.220;2024-02-15T06:01:49;101516.66;;;9.85;100.00
11395;BME280;5753;54.402;10.220;2024-02-15T06:04:17;101509.75;;;9.85;100.00
11395;BME280;5753;54.402;10.220;2024-02-15T06:06:44;101516.63;;;9.86;100.00
11395;BME280;5753;54.402;10.220;2024-02-15T06:09:16;101511.50;;;9.85;100.00
11395;BME280;5753;54.402;10.220;2024-02-15T06:11:44;101521.00;;;9.83;100.00
11395;BME280;5753;54.402;10.220;2024-02-15T06:14:11;101519.34;;;9.80;100.00
11395;BME280;5753;54.402;10.220;2024-02-15T06:16:48;101522.97;;;9.73;100.00
11395;BME280;5753;54.402;10.220;2024-02-15T06:19:16;101528.13;;;9.73;100.00
11395;BME280;5753;54.402;10.220;2024-02-15T06:21:43;101521.28;;;9.72;100.00
11395;BME280;5753;54.402;10.220;2024-02-15T06:24:11;101526.41;;;9.74;100.00
11395;BME280;5753;54.402;10.220;2024-02-15T06:26:39;101527.22;;;9.76;100.00
11395;BME280;5753;54.402;10.220;2024-02-15T06:29:05;101533.97;;;9.80;100.00
11395;BME280;5753;54.402;10.220;2024-02-15T06:31:52;101530.63;;;9.76;100.00
11395;BME280;5753;54.402;10.220;2024-02-15T06:34:36;101533.22;;;9.76;100.00
11395;BME280;5753;54.402;10.220;2024-02-15T06:37:36;101535.66;;;9.82;100.00
11395;BME280;5753;54.402;10.220;2024-02-15T06:40:24;101537.31;;;9.83;100.00
11395;BME280;5753;54.402;10.220;2024-02-15T06:42:54;101540.75;;;9.84;100.00
11395;BME280;5753;54.402;10.220;2024-02-15T06:45:22;101535.59;;;9.84;100.00
11395;BME280;5753;54.402;10.220;2024-02-15T06:47:49;101541.63;;;9.83;100.00
11395;BME280;5753;54.402;10.220;2024-02-15T06:50:16;101540.88;;;9.79;100.00
11395;BME280;5753;54.402;10.220;2024-02-15T06:52:44;101547.69;;;9.82;100.00
11395;BME280;5753;54.402;10.220;2024-02-15T06:55:16;101541.56;;;9.86;100.00
11395;BME280;5753;54.402;10.220;2024-02-15T06:57:43;101541.56;;;9.86;100.00
11395;BME280;5753;54.402;10.220;2024-02-15T07:00:13;101547.47;;;9.89;100.00
11395;BME280;5753;54.402;10.220;2024-02-15T07:02:44;101547.38;;;9.92;100.00
11395;BME280;5753;54.402;10.220;2024-02-15T07:05:12;101552.50;;;9.94;100.00
11395;BME280;5753;54.402;10.220;2024-02-15T07:07:39;101550.81;;;9.93;100.00
11395;BME280;5753;54.402;10.220;2024-02-15T07:10:06;101553.34;;;9.96;100.00
11395;BME280;5753;54.402;10.220;2024-02-15T07:12:33;101557.66;;;9.95;100.00
11395;BME280;5753;54.402;10.220;2024-02-15T07:15:12;101550.69;;;9.97;100.00
11395;BME280;5753;54.402;10.220;2024-02-15T07:17:39;101550.69;;;9.97;100.00
11395;BME280;5753;54.402;10.220;2024-02-15T07:20:06;101555.81;;;9.99;100.00
11395;BME280;5753;54.402;10.220;2024-02-15T07:22:34;101560.22;;;9.95;100.00
11395;BME280;5753;54.402;10.220;2024-02-15T07:25:03;101559.50;;;9.90;100.00
11395;BME280;5753;54.402;10.220;2024-02-15T07:27:33;101562.06;;;9.90;100.00
11395;BME280;5753;54.402;10.220;2024-02-15T07:30:03;101556.91;;;9.90;100.00
11395;BME280;5753;54.402;10.220;2024-02-15T07:32:32;101565.50;;;9.91;100.00
11395;BME280;5753;54.402;10.220;2024-02-15T07:35:01;101569.69;;;9.95;100.00
11395;BME280;5753;54.402;10.220;2024-02-15T07:37:29;101570.50;;;9.97;100.00
11395;BME280;5753;54.402;10.220;2024-02-15T07:39:55;101561.88;;;9.98;100.00
11395;BME280;5753;54.402;10.220;2024-02-15T07:42:22;101563.41;;;10.05;100.00
11395;BME280;5753;54.402;10.220;2024-02-15T07:44:55;101568.53;;;10.07;100.00
11395;BME280;5753;54.402;10.220;2024-02-15T07:47:23;101566.63;;;10.13;100.00
11395;BME280;5753;54.402;10.220;2024-02-15T07:49:51;101566.53;;;10.18;100.00
11395;BME280;5753;54.402;10.220;2024-02-15T07:52:18;101565.66;;;10.19;100.00
11395;BME280;5753;54.402;10.220;2024-02-15T07:54:48;101562.06;;;10.24;100.00
11395;BME280;5753;54.402;10.220;2024-02-15T07:57:14;101568.94;;;10.24;100.00
11395;BME280;5753;54.402;10.220;2024-02-15T07:59:43;101569.75;;;10.26;100.00
11395;BME280;5753;54.402;10.220;2024-02-15T08:02:12;101572.28;;;10.27;100.00
11395;BME280;5753;54.402;10.220;2024-02-15T08:04:38;101573.09;;;10.29;100.00
11395;BME280;5753;54.402;10.220;2024-02-15T08:07:09;101573.09;;;10.29;100.00
11395;BME280;5753;54.402;10.220;2024-02-15T08:09:38;101566.09;;;10.33;100.00
11395;BME280;5753;54.402;10.220;2024-02-15T08:12:06;101578.03;;;10.37;100.00
11395;BME280;5753;54.402;10.220;2024-02-15T08:14:34;101572.88;;;10.37;100.00
11395;BME280;5753;54.402;10.220;2024-02-15T08:17:00;101577.16;;;10.38;100.00
11395;BME280;5753;54.402;10.220;2024-02-15T08:19:30;101578.84;;;10.39;100.00
11395;BME280;5753;54.402;10.220;2024-02-15T08:21:56;101575.44;;;10.37;100.00
11395;BME280;5753;54.402;10.220;2024-02-15T08:24:23;101568.56;;;10.37;100.00
11395;BME280;5753;54.402;10.220;2024-02-15T08:26:49;101563.38;;;10.39;100.00
11395;BME280;5753;54.402;10.220;2024-02-15T08:29:17;101562.47;;;10.40;100.00
11395;BME280;5753;54.402;10.220;2024-02-15T08:31:44;101559.81;;;10.43;100.00
11395;BME280;5753;54.402;10.220;2024-02-15T08:34:12;101556.31;;;10.45;100.00
11395;BME280;5753;54.402;10.220;2024-02-15T08:36:42;101556.22;;;10.47;100.00
11395;BME280;5753;54.402;10.220;2024-02-15T08:39:10;101558.81;;;10.47;100.00
11395;BME280;5753;54.402;10.220;2024-02-15T08:41:40;101558.78;;;10.49;100.00
11395;BME280;5753;54.402;10.220;2024-02-15T08:44:07;101559.63;;;10.49;100.00
11395;BME280;5753;54.402;10.220;2024-02-15T08:46:39;101560.41;;;10.51;100.00
11395;BME280;5753;54.402;10.220;2024-02-15T08:49:06;101559.53;;;10.52;100.00
11395;BME280;5753;54.402;10.220;2024-02-15T08:51:34;101561.13;;;10.56;100.00
11395;BME280;5753;54.402;10.220;2024-02-15T08:54:01;101567.09;;;10.58;100.00
11395;BME280;5753;54.402;10.220;2024-02-15T08:56:29;101559.25;;;10.61;100.00
11395;BME280;5753;54.402;10.220;2024-02-15T08:58:58;101561.00;;;10.61;100.00
11395;BME280;5753;54.402;10.220;2024-02-15T09:01:26;101558.47;;;10.59;100.00
11395;BME280;5753;54.402;10.220;2024-02-15T09:03:58;101557.34;;;10.68;100.00
11395;BME280;5753;54.402;10.220;2024-02-15T09:06:25;101559.94;;;10.68;100.00
11395;BME280;5753;54.402;10.220;2024-02-15T09:08:52;101564.38;;;10.64;100.00
11395;BME280;5753;54.402;10.220;2024-02-15T09:11:19;101571.25;;;10.64;100.00
11395;BME280;5753;54.402;10.220;2024-02-15T09:13:47;101567.66;;;10.69;100.00
11395;BME280;5753;54.402;10.220;2024-02-15T09:16:16;101565.06;;;10.69;100.00
11395;BME280;5753;54.402;10.220;2024-02-15T09:18:43;101566.69;;;10.72;100.00
11395;BME280;5753;54.402;10.220;2024-02-15T09:21:11;101566.53;;;10.78;100.00
11395;BME280;5753;54.402;10.220;2024-02-15T09:23:37;101562.25;;;10.77;100.00
11395;BME280;5753;54.402;10.220;2024-02-15T09:26:06;101562.16;;;10.80;100.00
11395;BME280;5753;54.402;10.220;2024-02-15T09:28:36;101563.81;;;10.82;100.00
11395;BME280;5753;54.402;10.220;2024-02-15T09:31:04;101562.97;;;10.82;100.00
11395;BME280;5753;54.402;10.220;2024-02-15T09:33:30;101569.97;;;10.78;100.00
11395;BME280;5753;54.402;10.220;2024-02-15T09:35:58;101567.38;;;10.78;100.00
11395;BME280;5753;54.402;10.220;2024-02-15T09:38:26;101567.38;;;10.78;100.00
11395;BME280;5753;54.402;10.220;2024-02-15T09:40:52;101571.72;;;10.76;100.00
11395;BME280;5753;54.402;10.220;2024-02-15T09:43:20;101569.91;;;10.80;100.00
11395;BME280;5753;54.402;10.220;2024-02-15T09:45:54;101571.72;;;10.76;100.00
11395;BME280;5753;54.402;10.220;2024-02-15T09:48:25;101584.47;;;10.82;100.00
11395;BME280;5753;54.402;10.220;2024-02-15T09:50:53;101579.47;;;10.76;100.00
11395;BME280;5753;54.402;10.220;2024-02-15T09:53:24;101580.28;;;10.78;100.00
11395;BME280;5753;54.402;10.220;2024-02-15T09:55:54;101575.91;;;10.80;100.00
11395;BME280;5753;54.402;10.220;2024-02-15T09:58:21;101582.09;;;10.75;100.00
11395;BME280;5753;54.402;10.220;2024-02-15T10:00:52;101577.72;;;10.78;100.00
11395;BME280;5753;54.402;10.220;2024-02-15T10:03:20;101575.13;;;10.78;100.00
11395;BME280;5753;54.402;10.220;2024-02-15T10:05:49;101574.03;;;10.85;100.00
11395;BME280;5753;54.402;10.220;2024-02-15T10:08:16;101567.81;;;10.93;100.00
11395;BME280;5753;54.402;10.220;2024-02-15T10:10:43;101579.06;;;10.90;100.00
11395;BME280;5753;54.402;10.220;2024-02-15T10:13:14;101579.06;;;10.90;100.00
11395;BME280;5753;54.402;10.220;2024-02-15T10:15:42;101576.44;;;10.92;100.00
11395;BME280;5753;54.402;10.220;2024-02-15T10:18:12;101582.59;;;10.87;100.00
11395;BME280;5753;54.402;10.220;2024-02-15T10:20:41;101581.56;;;10.93;100.00
11395;BME280;5753;54.402;10.220;2024-02-15T10:23:12;101581.44;;;10.98;100.00
11395;BME280;5753;54.402;10.220;2024-02-15T10:25:40;101579.75;;;10.97;100.00
11395;BME280;5753;54.402;10.220;2024-02-15T10:28:11;101578.84;;;10.98;100.00
11395;BME280;5753;54.402;10.220;2024-02-15T10:30:43;101572.66;;;11.03;100.00
11395;BME280;5753;54.402;10.220;2024-02-15T10:33:18;101571.81;;;11.03;99.91
11395;BME280;5753;54.402;10.220;2024-02-15T10:35:46;101569.81;;;11.11;99.96
11395;BME280;5753;54.402;10.220;2024-02-15T10:38:14;101565.41;;;11.14;100.00
11395;BME280;5753;54.402;10.220;2024-02-15T10:40:41;101564.28;;;11.23;99.82
11395;BME280;5753;54.402;10.220;2024-02-15T10:43:11;101564.88;;;11.31;99.97
11395;BME280;5753;54.402;10.220;2024-02-15T10:45:40;101560.00;;;11.22;99.57
11395;BME280;5753;54.402;10.220;2024-02-15T10:48:10;101576.41;;;11.21;99.38
11395;BME280;5753;54.402;10.220;2024-02-15T10:50:45;101554.72;;;11.25;99.73
11395;BME280;5753;54.402;10.220;2024-02-15T10:53:30;101557.19;;;11.28;99.81
11395;BME280;5753;54.402;10.220;2024-02-15T10:56:39;101564.03;;;11.30;99.63
11395;BME280;5753;54.402;10.220;2024-02-15T10:59:18;101557.16;;;11.29;99.54
11395;BME280;5753;54.402;10.220;2024-02-15T11:01:47;101560.72;;;11.27;99.43
11395;BME280;5753;54.402;10.220;2024-02-15T11:04:21;101558.81;;;11.32;99.73
11395;BME280;5753;54.402;10.220;2024-02-15T11:06:50;101556.97;;;11.36;99.65
11395;BME280;5753;54.402;10.220;2024-02-15T11:09:19;101549.06;;;11.40;99.86
11395;BME280;5753;54.402;10.220;2024-02-15T11:11:48;101549.06;;;11.40;99.36
11395;BME280;5753;54.402;10.220;2024-02-15T11:14:27;101553.34;;;11.41;99.42
11395;BME280;5753;54.402;10.220;2024-02-15T11:16:56;101549.75;;;11.45;99.28
11395;BME280;5753;54.402;10.220;2024-02-15T11:22:14;101542.66;;;11.52;99.62
11395;BME280;5753;54.402;10.220;2024-02-15T11:24:50;101544.31;;;11.53;99.63
11395;BME280;5753;54.402;10.220;2024-02-15T11:27:28;101546.91;;;11.53;99.20
11395;BME280;5753;54.402;10.220;2024-02-15T11:30:21;101538.19;;;11.57;99.30
11395;BME280;5753;54.402;10.220;2024-02-15T11:32:59;101533.06;;;11.55;99.21
11395;BME280;5753;54.402;10.220;2024-02-15T11:36:08;101526.16;;;11.56;99.29
11395;BME280;5753;54.402;10.220;2024-02-15T11:38:36;101526.03;;;11.59;99.37
11395;BME280;5753;54.402;10.220;2024-02-15T11:41:07;101520.69;;;11.63;99.47
11395;BME280;5753;54.402;10.220;2024-02-15T11:44:05;101518.09;;;11.63;99.24
11395;BME280;5753;54.402;10.220;2024-02-15T11:46:33;101521.53;;;11.64;99.49
11395;BME280;5753;54.402;10.220;2024-02-15T11:49:01;101514.59;;;11.66;99.16
11395;BME280;5753;54.402;10.220;2024-02-15T11:51:36;101524.00;;;11.67;99.23
11395;BME280;5753;54.402;10.220;2024-02-15T11:54:05;101520.44;;;11.71;99.48
11395;BME280;5753;54.402;10.220;2024-02-15T11:57:11;101526.44;;;11.73;99.21
11395;BME280;5753;54.402;10.220;2024-02-15T11:59:52;101516.16;;;11.70;98.97
11395;BME280;5753;54.402;10.220;2024-02-15T12:02:42;101519.75;;;11.66;99.46
11395;BME280;5753;54.402;10.220;2024-02-15T12:05:28;101518.75;;;11.70;99.01
11395;BME280;5753;54.402;10.220;2024-02-15T12:08:13;101513.34;;;11.77;99.06
11395;BME280;5753;54.402;10.220;2024-02-15T12:11:01;101518.03;;;11.91;99.43
11395;BME280;5753;54.402;10.220;2024-02-15T12:13:52;101518.78;;;11.95;99.41
11395;BME280;5753;54.402;10.220;2024-02-15T12:16:40;101523.00;;;11.97;99.20
11395;BME280;5753;54.402;10.220;2024-02-15T12:19:27;101516.44;;;11.87;98.86
11395;BME280;5753;54.402;10.220;2024-02-15T12:21:53;101519.78;;;11.91;99.05
11395;BME280;5753;54.402;10.220;2024-02-15T12:24:21;101523.38;;;11.87;98.81
11395;BME280;5753;54.402;10.220;2024-02-15T12:27:01;101519.84;;;11.89;99.30
11395;BME280;5753;54.402;10.220;2024-02-15T12:29:32;101513.41;;;11.76;99.09
11395;BME280;5753;54.402;10.220;2024-02-15T12:32:04;101503.00;;;11.77;99.57
11395;BME280;5753;54.402;10.220;2024-02-15T12:34:31;101508.13;;;11.79;99.71
11395;BME280;5753;54.402;10.220;2024-02-15T12:37:06;101506.25;;;11.83;99.76
11395;BME280;5753;54.402;10.220;2024-02-15T12:39:35;101509.69;;;11.83;99.64
11395;BME280;5753;54.402;10.220;2024-02-15T12:42:06;101507.91;;;11.85;99.96
11395;BME280;5753;54.402;10.220;2024-02-15T12:44:37;101503.75;;;11.81;99.96
11395;BME280;5753;54.402;10.220;2024-02-15T12:47:11;101499.50;;;11.79;100.00
11395;BME280;5753;54.402;10.220;2024-02-15T12:49:43;101503.69;;;11.83;100.00
11395;BME280;5753;54.402;10.220;2024-02-15T12:57:41;101494.81;;;11.90;100.00
11395;BME280;5753;54.402;10.220;2024-02-15T13:00:11;101493.59;;;12.00;100.00
11395;BME280;5753;54.402;10.220;2024-02-15T13:02:45;101486.56;;;12.03;100.00
11395;BME280;5753;54.402;10.220;2024-02-15T13:05:13;101490.88;;;12.03;100.00
11395;BME280;5753;54.402;10.220;2024-02-15T13:07:42;101494.47;;;11.99;99.40